createdAt,value
2022-08-11T01:32:13.620Z,99.90
2022-08-11T01:54:48.912Z,99.90
2022-08-11T02:24:06.155Z,99.90
2022-08-11T02:35:02.600Z,99.90
2022-08-11T02:56:16.660Z,99.90
2022-08-11T03:03:37.672Z,99.90
2022-08-11T03:06:17.653Z,99.90
2022-08-11T03:09:11.011Z,99.90
2022-08-11T03:35:37.608Z,99.90
2022-08-11T03:46:09.620Z,99.90
2022-08-11T04:20:32.888Z,99.90
2022-08-11T04:39:24.760Z,99.90
2022-08-11T04:42:55.938Z,99.90
2022-08-11T04:49:34.007Z,99.90
2022-08-11T04:53:00.248Z,99.90
2022-08-11T04:56:52.496Z,99.90
2022-08-11T05:07:50.732Z,99.90
2022-08-11T06:22:15.602Z,99.90
2022-08-11T06:43:56.449Z,99.90
2022-08-11T09:18:48.456Z,50.30
2022-08-11T09:24:54.329Z,51.10
2022-08-11T09:27:32.396Z,49.70
2022-08-11T09:29:59.919Z,48.30
2022-08-11T09:32:31.649Z,47.30
2022-08-11T09:34:58.959Z,46.40
2022-08-11T09:37:54.897Z,45.70
2022-08-11T09:40:30.793Z,45.00
2022-08-11T09:43:23.772Z,43.50
2022-08-11T09:45:52.898Z,43.00
2022-08-11T09:48:21.759Z,44.20
2022-08-11T09:51:00.244Z,43.70
2022-08-11T09:53:37.275Z,43.80
2022-08-11T09:56:33.383Z,42.10
2022-08-11T09:59:02.471Z,41.80
2022-08-11T10:01:34.637Z,40.50
2022-08-11T10:04:15.428Z,40.70
2022-08-11T10:07:03.432Z,40.90
2022-08-11T10:10:02.005Z,40.60
2022-08-11T10:12:35.087Z,39.10
2022-08-11T10:15:27.134Z,38.60
2022-08-11T10:18:17.620Z,38.50
2022-08-11T10:20:52.453Z,39.20
2022-08-11T10:24:00.213Z,38.80
2022-08-11T10:26:48.698Z,38.70
2022-08-11T10:29:35.401Z,37.30
2022-08-11T10:32:24.676Z,37.80
2022-08-11T10:35:01.368Z,37.60
2022-08-11T10:38:08.306Z,38.10
2022-08-11T10:40:23.646Z,37.50
2022-08-11T10:43:13.545Z,36.80
2022-08-11T10:46:04.075Z,36.30
2022-08-11T10:48:36.205Z,36.30
2022-08-11T10:51:13.924Z,35.80
2022-08-11T10:54:05.784Z,35.20
2022-08-11T10:56:56.391Z,35.60
2022-08-11T10:59:24.896Z,36.10
2022-08-11T11:01:53.401Z,36.50
2022-08-11T11:05:01.751Z,35.80
2022-08-11T11:07:44.026Z,36.20
2022-08-11T11:10:12.055Z,36.90
2022-08-11T11:13:06.336Z,36.90
2022-08-11T11:15:54.842Z,37.20
2022-08-11T11:18:37.717Z,36.10
2022-08-11T11:21:11.288Z,36.60
2022-08-11T11:23:47.738Z,36.50
2022-08-11T11:26:45.904Z,35.80
2022-08-11T11:29:16.299Z,35.80
2022-08-11T11:31:52.075Z,36.00
2022-08-11T11:34:47.888Z,36.30
2022-08-11T11:37:24.549Z,36.10
2022-08-11T11:39:54.765Z,35.80
2022-08-11T11:42:21.937Z,36.20
2022-08-11T11:44:49.531Z,36.30
2022-08-11T11:47:21.761Z,36.10
2022-08-11T11:49:50.280Z,35.40
2022-08-11T11:52:20.249Z,35.20
2022-08-11T11:54:50.506Z,34.60
2022-08-11T11:57:37.843Z,33.80
2022-08-11T12:00:33.516Z,34.20
2022-08-11T12:03:05.173Z,34.70
2022-08-11T12:05:34.717Z,34.70
2022-08-11T12:08:18.153Z,34.70
2022-08-11T12:11:16.576Z,34.70
2022-08-11T12:13:46.301Z,34.80
2022-08-11T12:16:33.231Z,33.40
2022-08-11T12:19:08.638Z,34.10
2022-08-11T12:21:37.281Z,33.70
2022-08-11T12:24:29.294Z,33.50
2022-08-11T12:27:17.677Z,32.90
2022-08-11T12:29:56.463Z,33.50
2022-08-11T12:32:30.176Z,33.60
2022-08-11T12:34:57.969Z,32.90
2022-08-11T12:37:32.746Z,32.90
2022-08-11T12:40:42.693Z,33.90
2022-08-11T12:43:39.032Z,33.30
2022-08-11T12:46:45.980Z,32.40
2022-08-11T12:49:41.909Z,32.40
2022-08-11T12:52:19.077Z,33.10
2022-08-11T12:54:58.986Z,32.00
2022-08-11T12:58:05.512Z,32.90
2022-08-11T13:00:51.722Z,32.60
2022-08-11T13:03:41.145Z,32.60
2022-08-11T13:06:08.718Z,32.50
2022-08-11T13:08:39.331Z,32.60
2022-08-11T13:11:25.669Z,32.00
2022-08-11T13:14:15.325Z,32.50
2022-08-11T13:17:03.453Z,32.60
2022-08-11T13:19:32.627Z,32.60
2022-08-11T13:22:01.122Z,32.50
2022-08-11T13:24:28.877Z,32.50
2022-08-11T13:26:56.361Z,31.90
2022-08-11T13:29:28.237Z,31.00
2022-08-11T13:32:01.074Z,30.90
2022-08-11T13:34:33.143Z,31.70
2022-08-11T13:37:02.213Z,32.70
2022-08-11T13:39:31.775Z,33.00
2022-08-11T13:42:00.784Z,33.50
2022-08-11T13:44:30.344Z,33.50
2022-08-11T13:47:02.531Z,33.70
2022-08-11T13:49:31.981Z,33.30
2022-08-11T13:51:59.912Z,32.20
2022-08-11T13:54:31.192Z,32.10
2022-08-11T13:57:03.231Z,31.50
2022-08-11T13:59:43.705Z,31.10
2022-08-11T14:02:29.218Z,31.20
2022-08-11T14:05:15.599Z,30.90
2022-08-11T14:07:48.452Z,32.40
2022-08-11T14:10:18.463Z,32.40
2022-08-11T14:13:12.076Z,32.50
2022-08-11T14:15:42.579Z,32.20
2022-08-11T14:18:18.184Z,32.10
2022-08-11T14:21:11.604Z,32.10
2022-08-11T14:23:42.432Z,31.90
2022-08-11T14:26:23.890Z,32.10
2022-08-11T14:28:56.839Z,32.70
2022-08-11T14:31:26.154Z,33.00
2022-08-11T14:33:59.746Z,31.90
2022-08-11T14:36:32.851Z,32.10
2022-08-11T14:39:02.614Z,31.60
2022-08-11T14:42:10.244Z,32.60
2022-08-11T14:44:57.016Z,32.20
2022-08-11T14:47:26.006Z,33.50
2022-08-11T14:50:10.253Z,34.10
2022-08-11T14:52:49.037Z,34.30
2022-08-11T14:55:36.106Z,34.10
2022-08-11T14:58:04.622Z,34.60
2022-08-11T15:00:34.700Z,35.90
2022-08-11T15:03:14.450Z,36.60
2022-08-11T15:05:55.757Z,37.20
2022-08-11T15:08:45.974Z,37.80
2022-08-11T15:11:33.787Z,37.80
2022-08-11T15:14:03.255Z,38.10
2022-08-11T15:16:49.189Z,38.30
2022-08-11T15:19:23.753Z,38.40
2022-08-11T15:22:31.801Z,38.20
2022-08-11T15:25:09.519Z,38.30
2022-08-11T15:27:56.633Z,38.00
2022-08-11T15:30:49.794Z,37.40
2022-08-11T15:33:39.168Z,37.70
2022-08-11T15:36:27.765Z,38.00
2022-08-11T15:39:06.904Z,37.90
2022-08-11T15:42:02.761Z,37.40
2022-08-11T15:45:04.137Z,36.70
2022-08-11T15:47:41.674Z,36.50
2022-08-11T15:50:14.302Z,37.20
2022-08-11T15:52:56.258Z,37.00
2022-08-11T15:55:24.889Z,37.50
2022-08-11T15:58:17.419Z,37.60
2022-08-11T16:01:14.100Z,37.40
2022-08-11T16:04:13.391Z,37.40
2022-08-11T16:07:11.824Z,37.30
2022-08-11T16:09:51.964Z,37.10
2022-08-11T16:13:20.559Z,37.70
2022-08-11T16:16:12.549Z,38.10
2022-08-11T16:18:54.181Z,38.60
2022-08-11T16:21:36.001Z,38.90
2022-08-11T16:27:03.324Z,39.20
2022-08-11T16:30:53.712Z,39.90
2022-08-11T16:37:15.350Z,41.30
2022-08-11T16:39:46.932Z,42.10
2022-08-11T16:49:34.269Z,43.00
2022-08-11T16:56:07.514Z,43.00
2022-08-11T16:59:18.159Z,42.70
2022-08-11T17:02:29.469Z,43.40
2022-08-11T17:08:27.875Z,42.40
2022-08-11T17:11:55.956Z,42.90
2022-08-11T17:15:00.458Z,43.00
2022-08-11T17:17:38.250Z,42.90
2022-08-11T17:20:41.921Z,42.90
2022-08-11T17:35:23.977Z,43.50
2022-08-11T17:48:48.417Z,43.30
2022-08-11T18:18:41.186Z,44.50
2022-08-11T19:48:44.311Z,50.10
2022-08-11T20:29:35.997Z,53.00
2022-08-11T20:56:13.017Z,55.60
2022-08-11T23:14:23.372Z,89.80
2022-08-11T23:28:53.977Z,94.70
2022-08-11T23:43:07.505Z,95.80
2022-08-11T23:49:42.273Z,96.20
